Portada
METAR-TAF:

METAR-TAF

Aeroports :

Boonville, Missouri, Estats Units d'Amèrica

latitud: 38-56-48N, longitud: 092-40-58W, altitud: 218 m

Observació

L'informe es va fer fa 10 minuts, a les 10:35 UTC
Vent calma
Temperatura 18°C
Humitat 94%
Pressió 1017 hPa
Visibilitat: 16.1 km
Cel clar

METAR: KVER 151035Z AUTO 00000KT 10SM CLR 18/17 A3003 RMK AO2 T01810167

Hora: 05:45 (10:45 UTC)


TAF: manca

Observacions i pronòstics meteorològics de més de 4000 aeroports (METAR i TAF).

Les estacions disponibles són els punts grocs i vermells al mapa.

Posi el ratolí al punt desitjat per veure el nom de l'estació.

Feu clic per veure les observacions i els pronòstics meteorològics.

Per canviar el mapa: feu clic els botons verds amb una creu de color negre per apropar; al botó verd amb un guió per allunyar la imatge; o en les fletxes verdes per a mapes adjacents.


METAR-TAF: